Time;durP1;ratioP1;P1;durP2;ratioP2;P2;SDS_P1;SDS_P2;PMS_P1;PMS_P2;Temp;Humidity;BMP_temperature;BMP_pressure;BME280_temperature;BME280_humidity;BME280_pressure;Samples;Min_cycle;Max_cycle;Signal;HPM_P1;HPM_P2
2022/04/12 00:00:52;;;;;;;9.27;5.20;;;9.60;60.60;;;;;;4983253;28;20205;-79
2022/04/12 00:03:21;;;;;;;8.17;4.87;;;9.50;60.60;;;;;;4982590;28;20223;-78
2022/04/12 00:05:49;;;;;;;10.03;5.00;;;9.50;60.60;;;;;;4983804;28;20208;-80
2022/04/12 00:08:19;;;;;;;8.10;4.80;;;9.50;60.80;;;;;;4983796;28;20698;-80
2022/04/12 00:10:50;;;;;;;10.53;5.20;;;9.40;60.70;;;;;;4985515;28;20214;-78
2022/04/12 00:13:19;;;;;;;9.80;5.40;;;9.50;60.90;;;;;;4986134;28;20221;-80
2022/04/12 00:15:48;;;;;;;9.07;5.10;;;9.40;61.10;;;;;;4985127;28;20204;-80
2022/04/12 00:21:03;;;;;;;9.40;5.80;;;9.30;61.10;;;;;;4982880;28;20234;-79
2022/04/12 00:23:34;;;;;;;9.37;5.40;;;9.30;61.20;;;;;;4984059;28;20319;-79
2022/04/12 00:26:02;;;;;;;10.87;6.27;;;9.30;61.20;;;;;;4983893;28;20692;-80
2022/04/12 00:28:30;;;;;;;11.70;6.50;;;9.20;61.10;;;;;;4982820;28;20453;-79
2022/04/12 00:30:59;;;;;;;11.00;5.67;;;9.20;61.40;;;;;;4983539;28;20707;-80
2022/04/12 00:33:28;;;;;;;9.17;5.57;;;9.20;61.60;;;;;;4984364;28;20278;-82
2022/04/12 00:36:00;;;;;;;10.30;5.27;;;9.10;62.40;;;;;;4982945;28;20237;-80
2022/04/12 00:38:33;;;;;;;9.10;5.63;;;9.10;61.50;;;;;;4983738;28;20258;-80
2022/04/12 00:41:05;;;;;;;11.80;5.80;;;9.10;61.50;;;;;;4982894;28;20250;-81
2022/04/12 00:43:36;;;;;;;13.57;5.97;;;9.10;61.50;;;;;;4984819;28;20231;-81
2022/04/12 00:46:04;;;;;;;9.73;5.53;;;9.00;61.40;;;;;;4984562;28;20195;-81
2022/04/12 00:48:34;;;;;;;11.67;6.23;;;9.00;61.60;;;;;;4983210;28;20353;-80
2022/04/12 00:51:02;;;;;;;10.33;5.27;;;9.00;61.60;;;;;;4982688;28;20207;-80
2022/04/12 00:53:31;;;;;;;10.50;4.97;;;9.00;61.70;;;;;;4983803;28;20202;-81
2022/04/12 00:56:02;;;;;;;13.30;5.50;;;9.00;61.70;;;;;;4987176;28;20620;-80
2022/04/12 00:58:30;;;;;;;9.57;5.67;;;8.90;61.70;;;;;;4986738;28;20369;-80
2022/04/12 01:00:59;;;;;;;10.40;5.17;;;8.90;61.70;;;;;;4986469;28;20207;-79
2022/04/12 01:03:27;;;;;;;9.63;4.93;;;8.90;61.70;;;;;;4987059;28;20218;-77
2022/04/12 01:05:57;;;;;;;17.13;6.27;;;8.90;61.70;;;;;;4986659;28;20200;-80
2022/04/12 01:08:25;;;;;;;10.50;5.70;;;8.90;61.60;;;;;;4987827;28;20194;-79
2022/04/12 01:10:54;;;;;;;10.30;5.03;;;8.90;61.60;;;;;;4987353;28;20577;-78
2022/04/12 01:13:24;;;;;;;9.00;4.77;;;8.90;61.60;;;;;;4987344;28;20210;-78
2022/04/12 01:15:52;;;;;;;8.40;4.73;;;8.80;61.90;;;;;;4985004;28;20264;-78
2022/04/12 01:18:21;;;;;;;9.37;5.60;;;8.80;61.70;;;;;;4985859;28;20204;-79
2022/04/12 01:20:49;;;;;;;9.63;4.77;;;8.80;62.00;;;;;;4986718;28;20240;-80
2022/04/12 01:23:23;;;;;;;8.57;5.10;;;8.80;62.10;;;;;;4984919;28;20250;-79
2022/04/12 01:25:53;;;;;;;11.93;5.77;;;8.80;62.10;;;;;;4986769;28;20206;-80
2022/04/12 01:28:21;;;;;;;10.53;5.30;;;8.80;62.40;;;;;;4986088;28;20215;-79
2022/04/12 01:30:51;;;;;;;9.60;4.93;;;8.80;62.40;;;;;;4986656;28;20211;-79
2022/04/12 01:33:20;;;;;;;10.10;5.30;;;8.80;62.40;;;;;;4987182;28;20355;-79
2022/04/12 01:35:48;;;;;;;11.00;5.90;;;8.80;62.60;;;;;;4985891;28;20212;-78
2022/04/12 01:38:16;;;;;;;9.13;5.03;;;8.80;62.60;;;;;;4986237;28;20210;-78
2022/04/12 01:40:45;;;;;;;7.07;4.40;;;8.80;62.70;;;;;;4987963;28;20207;-79
2022/04/12 01:43:15;;;;;;;10.87;5.00;;;8.80;62.60;;;;;;4986436;28;20204;-80
2022/04/12 01:45:44;;;;;;;11.07;5.47;;;8.70;62.60;;;;;;4985806;28;20202;-80
2022/04/12 01:48:12;;;;;;;7.53;4.40;;;8.70;62.50;;;;;;4985372;28;20199;-79
2022/04/12 01:50:41;;;;;;;7.83;4.67;;;8.70;62.90;;;;;;4987624;28;20220;-79
2022/04/12 01:53:09;;;;;;;9.50;5.20;;;8.70;63.00;;;;;;4986471;28;20823;-79
2022/04/12 01:55:37;;;;;;;11.27;4.90;;;8.70;63.10;;;;;;4985970;28;20208;-79
2022/04/12 01:58:06;;;;;;;10.43;5.77;;;8.60;63.30;;;;;;4986124;28;20194;-80
2022/04/12 02:00:36;;;;;;;10.50;5.00;;;8.60;63.20;;;;;;4986492;28;20204;-78
2022/04/12 02:03:04;;;;;;;10.23;4.83;;;8.60;63.50;;;;;;4986137;28;21531;-80
2022/04/12 02:05:33;;;;;;;9.13;5.07;;;8.60;63.60;;;;;;4986113;28;20208;-80
2022/04/12 02:08:01;;;;;;;14.00;5.03;;;8.50;63.60;;;;;;4986146;28;20290;-78
2022/04/12 02:10:30;;;;;;;9.10;4.77;;;8.50;63.60;;;;;;4986294;28;20201;-79
2022/04/12 02:12:58;;;;;;;12.27;4.87;;;8.40;63.70;;;;;;4985552;28;20210;-79
2022/04/12 02:15:27;;;;;;;8.90;4.50;;;8.50;63.60;;;;;;4985695;28;20201;-81
2022/04/12 02:17:56;;;;;;;9.37;5.00;;;8.40;63.70;;;;;;4985594;28;21147;-78
2022/04/12 02:20:25;;;;;;;12.87;5.57;;;8.40;63.80;;;;;;4985072;28;20225;-80
2022/04/12 02:22:53;;;;;;;9.60;4.77;;;8.40;63.90;;;;;;4985124;28;20195;-80
2022/04/12 02:25:22;;;;;;;10.07;5.30;;;8.40;64.20;;;;;;4985148;28;20220;-78
2022/04/12 02:27:50;;;;;;;9.93;5.27;;;8.30;64.40;;;;;;4984419;28;21628;-78
2022/04/12 02:30:18;;;;;;;10.50;5.57;;;8.30;64.40;;;;;;4985853;28;20409;-77
2022/04/12 02:32:47;;;;;;;10.57;5.73;;;8.30;64.50;;;;;;4984221;28;20203;-78
2022/04/12 02:35:18;;;;;;;11.70;5.17;;;8.20;64.60;;;;;;4985888;28;20199;-79
2022/04/12 02:37:46;;;;;;;14.33;7.03;;;8.20;64.50;;;;;;4985120;28;21047;-80
2022/04/12 02:40:14;;;;;;;13.23;6.33;;;8.20;64.90;;;;;;4985213;28;20736;-79
2022/04/12 02:42:43;;;;;;;10.17;5.57;;;8.20;64.80;;;;;;4984796;28;20352;-79
2022/04/12 02:45:11;;;;;;;11.47;5.53;;;8.20;64.80;;;;;;4984419;28;20653;-80
2022/04/12 02:47:39;;;;;;;9.77;5.57;;;8.20;64.70;;;;;;4984824;28;20202;-80
2022/04/12 02:50:08;;;;;;;11.30;5.77;;;8.20;64.60;;;;;;4985220;28;20200;-80
2022/04/12 02:52:38;;;;;;;11.73;5.80;;;8.20;64.70;;;;;;4984649;28;20222;-80
2022/04/12 02:55:07;;;;;;;11.03;6.10;;;8.10;64.80;;;;;;4984937;28;20198;-78
2022/04/12 02:57:36;;;;;;;13.53;5.87;;;8.10;64.80;;;;;;4984562;28;20205;-80
2022/04/12 03:00:05;;;;;;;14.27;6.10;;;8.10;64.90;;;;;;4983975;28;20214;-80
2022/04/12 03:02:33;;;;;;;11.60;5.20;;;8.10;65.00;;;;;;4984897;28;20201;-79
2022/04/12 03:05:02;;;;;;;10.90;6.27;;;8.10;64.90;;;;;;4984310;28;20340;-79
2022/04/12 03:07:31;;;;;;;11.27;6.10;;;8.00;64.70;;;;;;4982372;28;20668;-80
2022/04/12 03:10:00;;;;;;;10.93;5.97;;;8.00;64.90;;;;;;4984190;28;20719;-80
2022/04/12 03:12:29;;;;;;;13.67;7.43;;;8.00;65.00;;;;;;4984406;28;20202;-80
2022/04/12 03:14:57;;;;;;;11.27;6.10;;;8.00;64.90;;;;;;4983886;28;20235;-80
2022/04/12 03:17:27;;;;;;;11.47;6.47;;;8.00;65.10;;;;;;4985236;28;20201;-81
2022/04/12 03:19:56;;;;;;;13.37;6.67;;;8.00;65.00;;;;;;4984347;28;20266;-79
2022/04/12 03:22:27;;;;;;;11.23;6.50;;;7.90;64.90;;;;;;4984658;28;20596;-80
2022/04/12 03:24:56;;;;;;;12.27;6.53;;;7.90;65.00;;;;;;4983294;28;20658;-78
2022/04/12 03:27:26;;;;;;;13.07;6.20;;;7.90;65.00;;;;;;4983326;28;20841;-80
2022/04/12 03:29:54;;;;;;;13.17;7.07;;;7.90;65.00;;;;;;4983145;28;20201;-79
2022/04/12 03:32:25;;;;;;;12.07;6.13;;;7.90;65.20;;;;;;4983893;28;20206;-79
2022/04/12 03:34:56;;;;;;;11.87;7.10;;;7.90;65.30;;;;;;4984684;28;20198;-80
2022/04/12 03:37:24;;;;;;;14.47;6.50;;;7.80;65.60;;;;;;4984720;28;20208;-80
2022/04/12 03:39:52;;;;;;;11.97;6.23;;;7.80;65.60;;;;;;4986234;28;20657;-79
2022/04/12 03:42:21;;;;;;;15.43;6.87;;;7.80;66.10;;;;;;4984763;28;20206;-80
2022/04/12 03:44:51;;;;;;;13.93;6.93;;;7.80;66.10;;;;;;4987056;28;20224;-80
2022/04/12 03:47:19;;;;;;;12.17;6.73;;;7.70;66.10;;;;;;4984629;28;20205;-81
2022/04/12 03:49:47;;;;;;;11.97;6.67;;;7.70;66.20;;;;;;4984189;28;20579;-80
2022/04/12 03:52:16;;;;;;;10.70;6.23;;;7.70;66.30;;;;;;4984063;28;20194;-80
2022/04/12 03:54:44;;;;;;;12.13;6.63;;;7.70;66.30;;;;;;4983689;28;20193;-79
2022/04/12 03:57:12;;;;;;;10.67;6.33;;;7.70;66.60;;;;;;4982991;28;20200;-80
2022/04/12 03:59:41;;;;;;;14.20;7.33;;;7.70;66.90;;;;;;4984025;28;20197;-79
2022/04/12 04:02:10;;;;;;;11.43;5.97;;;7.60;66.80;;;;;;4996186;28;20220;-79
2022/04/12 04:04:39;;;;;;;13.87;6.63;;;7.60;66.90;;;;;;4986123;28;20221;-79
2022/04/12 04:07:07;;;;;;;15.67;6.90;;;7.60;66.80;;;;;;4984708;28;20209;-78
2022/04/12 04:09:36;;;;;;;14.40;6.37;;;7.60;66.90;;;;;;4982291;28;20210;-79
2022/04/12 04:12:05;;;;;;;14.83;6.33;;;7.60;66.90;;;;;;4982986;28;20235;-79
2022/04/12 04:14:39;;;;;;;14.17;7.17;;;7.60;66.80;;;;;;4983359;28;20696;-79
2022/04/12 04:17:07;;;;;;;12.43;6.87;;;7.70;67.10;;;;;;4982894;28;20189;-80
2022/04/12 04:19:37;;;;;;;12.43;6.67;;;7.70;66.90;;;;;;4983259;28;20206;-79
2022/04/12 04:22:05;;;;;;;12.90;6.20;;;7.70;66.90;;;;;;4983802;28;20242;-79
2022/04/12 04:24:36;;;;;;;12.03;5.77;;;7.70;67.10;;;;;;4982362;28;20220;-78
2022/04/12 04:27:05;;;;;;;13.40;6.57;;;7.70;67.10;;;;;;4982666;28;20211;-78
2022/04/12 04:29:35;;;;;;;13.27;6.00;;;7.70;67.10;;;;;;4985878;28;20213;-79
2022/04/12 04:32:05;;;;;;;15.23;5.80;;;7.70;67.10;;;;;;4988109;28;20223;-79
2022/04/12 04:34:36;;;;;;;13.17;6.97;;;7.80;67.00;;;;;;4987234;28;20245;-79
2022/04/12 04:37:06;;;;;;;13.00;6.73;;;7.80;66.90;;;;;;4986367;28;20201;-79
2022/04/12 04:39:34;;;;;;;15.67;6.93;;;7.90;67.10;;;;;;4986378;28;20569;-81
2022/04/12 04:42:06;;;;;;;13.80;5.67;;;7.90;67.00;;;;;;4987119;28;20203;-80
2022/04/12 04:44:34;;;;;;;13.77;6.60;;;8.00;66.90;;;;;;4986235;28;20212;-81
2022/04/12 04:47:03;;;;;;;14.50;7.50;;;8.00;66.80;;;;;;4985927;28;20210;-78
2022/04/12 04:49:31;;;;;;;12.67;6.23;;;8.10;66.70;;;;;;4987200;28;20203;-79
2022/04/12 04:51:59;;;;;;;11.90;6.87;;;8.10;66.50;;;;;;4987434;28;20197;-79
2022/04/12 04:54:29;;;;;;;13.83;5.50;;;8.10;66.40;;;;;;4985586;28;20201;-79
2022/04/12 04:56:57;;;;;;;12.93;5.43;;;8.20;66.40;;;;;;4986302;28;20203;-79
2022/04/12 04:59:26;;;;;;;11.50;5.93;;;8.20;66.30;;;;;;4986668;28;20199;-79
2022/04/12 05:01:55;;;;;;;13.37;6.27;;;8.30;66.20;;;;;;4986498;28;21630;-80
2022/04/12 05:04:23;;;;;;;11.47;5.90;;;8.40;66.00;;;;;;4987922;28;20206;-79
2022/04/12 05:06:52;;;;;;;14.17;5.63;;;8.50;65.90;;;;;;4987474;28;20340;-78
2022/04/12 05:09:20;;;;;;;18.80;6.37;;;8.50;65.70;;;;;;4987566;28;20204;-80
2022/04/12 05:11:50;;;;;;;10.27;5.73;;;8.60;65.60;;;;;;4987991;28;20217;-77
2022/04/12 05:14:18;;;;;;;9.87;5.07;;;8.70;65.60;;;;;;4987528;28;20226;-80
2022/04/12 05:16:47;;;;;;;13.13;5.77;;;8.70;65.50;;;;;;4986779;28;20208;-79
2022/04/12 05:19:15;;;;;;;16.70;5.97;;;8.80;65.00;;;;;;4987158;28;20222;-79
2022/04/12 05:21:43;;;;;;;10.50;4.97;;;8.80;64.90;;;;;;4984323;28;20235;-80
2022/04/12 05:24:12;;;;;;;12.17;5.27;;;8.90;64.80;;;;;;4987501;28;20227;-79
2022/04/12 05:26:40;;;;;;;12.27;5.70;;;9.00;64.40;;;;;;4987561;28;20233;-78
2022/04/12 05:29:10;;;;;;;13.30;4.77;;;9.00;64.40;;;;;;4986318;28;20852;-79
2022/04/12 05:31:38;;;;;;;13.87;5.30;;;9.10;64.40;;;;;;4987013;28;20208;-79
2022/04/12 05:34:07;;;;;;;11.33;5.37;;;9.20;64.30;;;;;;4985743;28;20230;-80
2022/04/12 05:36:35;;;;;;;10.47;5.17;;;9.20;63.80;;;;;;4985938;28;20443;-78
2022/04/12 05:39:04;;;;;;;8.97;4.40;;;9.30;64.00;;;;;;4986959;28;20323;-80
2022/04/12 05:41:33;;;;;;;9.60;4.90;;;9.40;63.70;;;;;;4983399;28;20216;-79
2022/04/12 05:44:01;;;;;;;10.10;5.13;;;9.40;63.60;;;;;;4985751;28;20208;-77
2022/04/12 05:46:31;;;;;;;12.33;4.67;;;9.50;63.60;;;;;;4984924;28;20213;-77
2022/04/12 05:48:59;;;;;;;12.00;4.90;;;9.60;63.30;;;;;;4985270;28;20230;-77
2022/04/12 05:51:27;;;;;;;12.43;5.22;;;9.70;63.40;;;;;;4983699;28;20437;-77
2022/04/12 05:53:56;;;;;;;9.97;4.60;;;9.70;63.20;;;;;;4986239;28;20794;-77
2022/04/12 05:56:24;;;;;;;7.73;4.00;;;9.80;62.80;;;;;;4985842;28;20200;-77
2022/04/12 05:59:02;;;;;;;10.40;4.23;;;9.90;62.70;;;;;;4986780;28;20577;-78
2022/04/12 06:01:55;;;;;;;9.70;4.27;;;9.90;62.60;;;;;;4984190;28;20295;-79
2022/04/12 06:04:27;;;;;;;14.63;3.37;;;10.00;62.20;;;;;;4984829;28;20642;-79
2022/04/12 06:06:58;;;;;;;6.60;3.23;;;10.10;62.20;;;;;;4983916;28;20566;-79
2022/04/12 06:09:26;;;;;;;8.67;3.20;;;10.30;61.70;;;;;;4985741;28;20193;-79
2022/04/12 06:11:54;;;;;;;6.10;2.90;;;10.40;61.40;;;;;;4985864;28;20658;-77
2022/04/12 06:14:23;;;;;;;6.47;3.00;;;10.50;61.10;;;;;;4987012;28;20224;-78
2022/04/12 06:16:51;;;;;;;6.50;2.77;;;10.60;60.60;;;;;;4985880;28;20203;-77
2022/04/12 06:19:21;;;;;;;5.97;2.53;;;10.70;60.20;;;;;;4984794;28;20209;-78
2022/04/12 06:21:49;;;;;;;6.80;2.67;;;10.70;59.90;;;;;;4984950;28;20228;-78
2022/04/12 06:24:18;;;;;;;5.27;2.43;;;10.90;59.60;;;;;;4985020;28;20535;-78
2022/04/12 06:26:46;;;;;;;8.07;2.80;;;10.90;59.40;;;;;;4984829;28;20217;-78
2022/04/12 06:29:17;;;;;;;7.90;2.77;;;11.10;59.20;;;;;;4984393;28;20219;-78
2022/04/12 06:31:45;;;;;;;9.27;3.13;;;11.20;58.70;;;;;;4986540;28;20193;-78
2022/04/12 06:34:13;;;;;;;7.87;3.10;;;11.30;58.60;;;;;;4984413;28;20215;-78
2022/04/12 06:36:43;;;;;;;6.40;2.60;;;11.40;58.60;;;;;;4985394;28;20200;-78
2022/04/12 06:39:12;;;;;;;7.27;2.53;;;11.50;58.50;;;;;;4985071;28;20223;-77
2022/04/12 06:41:42;;;;;;;6.40;2.40;;;11.70;58.00;;;;;;4983259;28;20921;-77
2022/04/12 06:44:10;;;;;;;2.43;1.33;;;11.80;57.80;;;;;;4983123;28;20201;-78
2022/04/12 06:46:38;;;;;;;1.87;0.77;;;11.90;56.10;;;;;;4983301;28;20247;-78
2022/04/12 06:49:07;;;;;;;2.67;1.07;;;11.90;55.20;;;;;;4983859;28;20296;-77
2022/04/12 06:51:37;;;;;;;3.00;1.50;;;12.10;54.90;;;;;;4982870;28;20291;-79
2022/04/12 06:54:07;;;;;;;3.73;1.83;;;12.20;54.70;;;;;;4983246;28;20216;-77
2022/04/12 06:56:42;;;;;;;3.23;1.67;;;12.30;53.80;;;;;;4983610;28;20864;-78
2022/04/12 06:59:17;;;;;;;5.30;1.70;;;12.40;53.00;;;;;;4983783;28;20208;-78
2022/04/12 07:01:49;;;;;;;2.37;1.23;;;12.40;53.40;;;;;;4983634;28;20192;-77
2022/04/12 07:04:25;;;;;;;1.70;1.10;;;12.50;53.30;;;;;;4983271;28;20228;-78
2022/04/12 07:06:56;;;;;;;3.07;0.90;;;12.60;51.80;;;;;;4982549;28;21205;-77
2022/04/12 07:09:28;;;;;;;3.53;1.20;;;12.70;51.10;;;;;;4983569;28;20205;-79
2022/04/12 07:12:03;;;;;;;2.03;1.00;;;12.80;50.90;;;;;;4982875;28;20197;-78
2022/04/12 07:14:32;;;;;;;2.13;1.00;;;12.90;50.80;;;;;;4983821;28;20298;-78
2022/04/12 07:17:08;;;;;;;1.70;0.93;;;12.90;47.70;;;;;;4983917;28;20192;-80
2022/04/12 07:19:37;;;;;;;2.00;1.10;;;13.00;48.20;;;;;;4981214;28;20205;-78
2022/04/12 07:22:13;;;;;;;1.83;1.03;;;13.10;48.70;;;;;;4982585;28;20329;-78
2022/04/12 07:24:43;;;;;;;3.40;1.20;;;13.20;48.90;;;;;;4932169;28;20208;-78
2022/04/12 07:27:12;;;;;;;2.53;1.30;;;13.30;49.50;;;;;;4983120;28;20244;-76
2022/04/12 07:29:40;;;;;;;2.87;1.43;;;13.30;47.70;;;;;;4983835;28;20219;-76
2022/04/12 07:32:09;;;;;;;1.63;0.97;;;13.40;48.10;;;;;;4982857;28;20193;-77
2022/04/12 07:34:37;;;;;;;3.77;1.03;;;13.50;48.30;;;;;;4985057;28;20811;-79
2022/04/12 07:37:06;;;;;;;1.93;1.10;;;13.60;47.60;;;;;;4983924;28;20801;-78
2022/04/12 07:39:34;;;;;;;2.22;1.23;;;13.70;47.20;;;;;;4982278;28;20461;-79
2022/04/12 07:42:05;;;;;;;1.63;1.20;;;13.80;47.10;;;;;;4983969;28;20196;-79
2022/04/12 07:44:36;;;;;;;3.37;1.40;;;13.90;47.20;;;;;;4984499;28;20213;-79
2022/04/12 07:47:08;;;;;;;1.97;1.20;;;14.00;47.30;;;;;;4983352;28;20209;-79
2022/04/12 07:49:36;;;;;;;3.07;1.37;;;14.10;46.90;;;;;;4982725;28;20209;-77
2022/04/12 07:52:05;;;;;;;3.00;1.67;;;14.20;46.50;;;;;;4983639;28;20197;-77
2022/04/12 07:54:34;;;;;;;2.70;1.47;;;14.20;45.80;;;;;;4982927;28;20209;-78
2022/04/12 07:57:04;;;;;;;3.77;1.30;;;14.30;46.70;;;;;;4984205;28;20219;-79
2022/04/12 07:59:32;;;;;;;4.10;1.43;;;14.30;46.50;;;;;;4982965;28;20216;-79
2022/04/12 08:02:04;;;;;;;4.17;1.37;;;14.50;46.80;;;;;;4982336;28;20588;-77
2022/04/12 08:04:32;;;;;;;2.53;1.37;;;14.60;46.20;;;;;;4985756;28;20196;-78
2022/04/12 08:07:01;;;;;;;2.40;1.20;;;14.60;46.30;;;;;;4989553;28;20224;-79
2022/04/12 08:09:29;;;;;;;2.73;1.30;;;14.70;46.10;;;;;;4988005;28;20978;-78
2022/04/12 08:11:57;;;;;;;3.63;1.40;;;14.70;45.40;;;;;;4988017;28;20193;-79
2022/04/12 08:14:27;;;;;;;3.17;1.70;;;14.70;45.00;;;;;;4986282;28;20483;-77
2022/04/12 08:16:55;;;;;;;2.83;1.43;;;14.80;45.00;;;;;;4987747;28;20200;-78
2022/04/12 08:19:24;;;;;;;2.27;1.03;;;14.90;45.20;;;;;;4984633;28;20200;-78
2022/04/12 08:21:52;;;;;;;3.07;1.40;;;15.00;44.30;;;;;;4986298;28;20232;-78
2022/04/12 08:24:21;;;;;;;2.73;1.20;;;15.00;44.20;;;;;;4988836;28;20613;-77
2022/04/12 08:26:50;;;;;;;2.93;1.37;;;15.10;43.70;;;;;;4987688;28;20208;-78
2022/04/12 08:29:18;;;;;;;4.87;1.50;;;15.10;43.40;;;;;;4987197;28;20197;-77
2022/04/12 08:31:49;;;;;;;2.63;1.40;;;15.10;43.90;;;;;;4987108;28;20204;-78
2022/04/12 08:34:17;;;;;;;4.77;1.70;;;15.20;44.10;;;;;;4985375;28;20223;-78
2022/04/12 08:36:45;;;;;;;7.57;1.70;;;15.20;44.30;;;;;;4987135;28;20235;-75
2022/04/12 08:39:14;;;;;;;3.10;1.67;;;15.30;44.20;;;;;;4985697;28;20208;-78
2022/04/12 08:41:43;;;;;;;2.90;1.53;;;15.30;44.80;;;;;;4985592;28;20200;-78
2022/04/12 08:44:12;;;;;;;1.77;1.20;;;15.40;44.80;;;;;;4986299;28;20230;-80
2022/04/12 08:46:46;;;;;;;2.73;1.20;;;15.40;44.70;;;;;;4986836;28;20255;-80
2022/04/12 08:49:16;;;;;;;2.03;1.27;;;15.50;44.00;;;;;;4985312;28;20192;-78
2022/04/12 08:51:47;;;;;;;2.73;1.43;;;15.60;44.20;;;;;;4985115;28;20307;-83
2022/04/12 08:54:17;;;;;;;2.17;1.07;;;15.60;43.40;;;;;;4983843;28;21910;-77
2022/04/12 08:56:48;;;;;;;1.97;1.07;;;15.70;43.80;;;;;;4985801;28;20197;-79
2022/04/12 08:59:20;;;;;;;2.73;1.20;;;15.80;43.40;;;;;;4984462;28;20212;-79
2022/04/12 09:01:50;;;;;;;2.30;1.00;;;15.80;43.10;;;;;;4985097;28;20239;-77
2022/04/12 09:04:20;;;;;;;2.83;1.23;;;15.90;43.00;;;;;;4984948;28;20199;-78
2022/04/12 09:06:49;;;;;;;1.70;1.10;;;16.00;42.90;;;;;;4984605;28;20200;-76
2022/04/12 09:09:19;;;;;;;2.23;1.20;;;16.00;42.70;;;;;;4985452;28;20212;-76
2022/04/12 09:11:57;;;;;;;2.47;1.10;;;16.10;42.50;;;;;;4986433;28;20204;-76
2022/04/12 09:14:26;;;;;;;1.77;1.20;;;16.20;42.70;;;;;;4984062;28;20832;-75
2022/04/12 09:16:54;;;;;;;2.60;1.30;;;16.20;42.40;;;;;;4985291;28;20207;-77
2022/04/12 09:19:41;;;;;;;2.30;1.40;;;16.10;42.20;;;;;;4983871;28;20220;-78
2022/04/12 09:22:12;;;;;;;4.23;1.20;;;16.20;42.30;;;;;;4984498;28;20231;-76
2022/04/12 09:24:48;;;;;;;2.67;1.27;;;16.30;42.60;;;;;;4984373;28;20209;-77
2022/04/12 09:27:18;;;;;;;3.77;1.50;;;16.30;40.80;;;;;;4984954;28;20773;-77
2022/04/12 09:29:49;;;;;;;2.83;1.50;;;16.30;40.90;;;;;;4985765;28;20200;-77
2022/04/12 09:32:20;;;;;;;4.20;1.50;;;16.40;41.10;;;;;;4984698;28;20204;-76
2022/04/12 09:34:52;;;;;;;4.80;1.47;;;16.50;41.10;;;;;;4983576;28;20200;-77
2022/04/12 09:37:22;;;;;;;5.57;1.40;;;16.60;40.90;;;;;;4984718;28;20201;-77
2022/04/12 09:39:55;;;;;;;4.53;1.23;;;16.70;40.20;;;;;;4983799;28;20185;-79
2022/04/12 09:42:54;;;;;;;2.03;1.30;;;16.70;39.70;;;;;;4984459;28;20201;-75
2022/04/12 09:45:24;;;;;;;2.87;1.20;;;16.80;39.80;;;;;;4921129;29;20676;-78
2022/04/12 09:48:01;;;;;;;1.97;1.10;;;16.90;40.30;;;;;;4973333;28;20220;-78
2022/04/12 09:50:51;;;;;;;3.20;1.50;;;16.90;40.30;;;;;;4983181;28;20902;-79
2022/04/12 09:53:20;;;;;;;2.20;1.40;;;16.90;39.60;;;;;;4983412;28;20198;-78
2022/04/12 09:55:49;;;;;;;4.43;1.50;;;16.90;40.20;;;;;;4984082;28;20543;-79
2022/04/12 09:58:21;;;;;;;3.08;1.40;;;16.90;40.50;;;;;;4982759;28;20460;-79
2022/04/12 10:00:49;;;;;;;1.53;1.10;;;16.90;40.50;;;;;;4984085;28;20311;-79
2022/04/12 10:03:19;;;;;;;3.30;1.40;;;16.90;40.10;;;;;;4984273;28;20224;-78
2022/04/12 10:05:49;;;;;;;3.00;1.20;;;16.80;39.80;;;;;;4983742;28;22416;-78
2022/04/12 10:08:23;;;;;;;4.83;1.73;;;16.80;40.20;;;;;;4985074;28;20239;-78
2022/04/12 10:10:53;;;;;;;2.27;1.40;;;16.80;40.20;;;;;;4983746;28;20774;-79
2022/04/12 10:13:22;;;;;;;3.07;1.23;;;16.80;40.70;;;;;;4984105;28;20205;-78
2022/04/12 10:15:52;;;;;;;2.70;1.47;;;16.80;40.70;;;;;;4984066;28;20205;-79
2022/04/12 10:18:21;;;;;;;3.87;1.30;;;16.90;40.60;;;;;;4984537;28;20283;-79
2022/04/12 10:20:50;;;;;;;2.97;1.30;;;16.90;40.50;;;;;;4985944;28;20228;-79
2022/04/12 10:23:23;;;;;;;4.83;1.30;;;17.00;40.60;;;;;;4985821;28;20197;-78
2022/04/12 10:25:54;;;;;;;4.97;1.40;;;17.10;40.20;;;;;;4984772;28;20194;-79
2022/04/12 10:28:33;;;;;;;2.10;0.80;;;17.20;39.70;;;;;;4985169;28;20205;-81
2022/04/12 10:31:19;;;;;;;1.57;0.80;;;17.30;39.60;;;;;;4985211;28;20197;-79
2022/04/12 10:34:11;;;;;;;1.23;0.80;;;17.30;38.60;;;;;;4984315;28;20211;-77
2022/04/12 10:36:59;;;;;;;3.50;1.23;;;17.40;38.50;;;;;;4984491;28;20207;-79
2022/04/12 10:39:56;;;;;;;3.67;1.13;;;17.50;38.60;;;;;;4984272;28;20600;-77
2022/04/12 10:42:27;;;;;;;1.47;1.00;;;17.50;38.90;;;;;;4983608;28;20268;-78
2022/04/12 10:44:56;;;;;;;1.77;1.00;;;17.60;39.10;;;;;;4984040;28;20220;-79
2022/04/12 10:47:29;;;;;;;3.33;1.10;;;17.60;39.30;;;;;;4982841;28;20632;-78
2022/04/12 10:50:00;;;;;;;1.83;0.90;;;17.60;38.30;;;;;;4982911;28;20216;-78
2022/04/12 10:52:43;;;;;;;1.73;1.03;;;17.60;38.20;;;;;;4983782;28;20208;-78
2022/04/12 10:55:15;;;;;;;2.33;1.03;;;17.70;38.70;;;;;;4983022;28;20197;-79
2022/04/12 10:57:44;;;;;;;4.47;1.00;;;17.70;38.50;;;;;;4984071;28;20262;-80
2022/04/12 11:00:30;;;;;;;2.17;1.20;;;17.70;38.30;;;;;;4984323;28;20196;-76
2022/04/12 11:03:05;;;;;;;1.60;1.00;;;17.70;38.30;;;;;;4985054;28;20819;-80
2022/04/12 11:05:54;;;;;;;1.20;0.80;;;17.70;38.50;;;;;;4983395;28;20227;-78
2022/04/12 11:08:50;;;;;;;2.07;1.03;;;17.90;38.10;;;;;;4983562;28;20675;-80
2022/04/12 11:11:28;;;;;;;3.40;1.30;;;18.10;37.60;;;;;;4983223;28;21034;-78
2022/04/12 11:14:27;;;;;;;2.17;1.00;;;18.10;37.10;;;;;;4982479;28;20344;-79
2022/04/12 11:17:09;;;;;;;1.93;1.00;;;18.20;36.70;;;;;;4984169;28;20193;-76
2022/04/12 11:19:43;;;;;;;4.43;1.13;;;18.10;36.00;;;;;;4981248;28;20208;-79
2022/04/12 11:22:12;;;;;;;5.20;0.90;;;18.10;36.70;;;;;;4981465;28;20730;-80
2022/04/12 11:24:42;;;;;;;1.87;1.07;;;18.20;36.60;;;;;;4983146;28;20682;-78
2022/04/12 11:27:13;;;;;;;2.40;1.10;;;18.20;36.50;;;;;;4982939;28;20212;-78
2022/04/12 11:29:43;;;;;;;1.97;0.93;;;18.20;36.50;;;;;;4984393;28;20221;-78
2022/04/12 11:32:12;;;;;;;1.60;0.87;;;18.10;36.10;;;;;;4982878;28;20566;-77
2022/04/12 11:34:41;;;;;;;2.97;1.43;;;18.10;36.10;;;;;;4983619;28;20209;-77
2022/04/12 11:37:12;;;;;;;2.63;1.10;;;18.30;36.50;;;;;;4984715;28;20201;-78
2022/04/12 11:39:43;;;;;;;1.17;0.70;;;18.30;36.10;;;;;;4983029;28;20223;-78
2022/04/12 11:42:15;;;;;;;2.67;1.00;;;18.40;35.80;;;;;;4984313;28;20193;-79
2022/04/12 11:44:51;;;;;;;1.57;0.90;;;18.50;36.00;;;;;;4984313;28;20208;-78
2022/04/12 11:47:20;;;;;;;1.83;0.77;;;18.60;36.00;;;;;;4982697;28;21147;-79
2022/04/12 11:49:49;;;;;;;1.90;0.90;;;18.60;35.50;;;;;;4983148;28;20213;-76
2022/04/12 11:52:17;;;;;;;1.33;0.83;;;18.70;34.90;;;;;;4982476;28;20204;-77
2022/04/12 11:54:48;;;;;;;1.30;0.90;;;18.70;34.60;;;;;;4984274;28;20205;-79
2022/04/12 11:57:21;;;;;;;3.17;0.90;;;18.80;35.30;;;;;;4982831;28;20231;-78
2022/04/12 11:59:51;;;;;;;2.17;1.00;;;18.90;35.20;;;;;;4984154;28;20195;-78
2022/04/12 12:02:21;;;;;;;3.60;0.90;;;18.90;35.20;;;;;;4983072;28;20203;-79
2022/04/12 12:04:52;;;;;;;1.47;0.97;;;19.00;34.90;;;;;;4984196;28;20271;-78
2022/04/12 12:07:21;;;;;;;2.13;1.00;;;19.10;34.10;;;;;;4983570;28;20199;-78
2022/04/12 12:09:53;;;;;;;1.70;0.80;;;19.20;34.60;;;;;;4983524;28;20235;-80
2022/04/12 12:12:32;;;;;;;1.50;0.83;;;19.20;34.50;;;;;;4982388;28;20770;-78
2022/04/12 12:15:16;;;;;;;2.03;0.90;;;19.20;33.70;;;;;;4983925;28;20295;-80
2022/04/12 12:17:45;;;;;;;3.77;0.80;;;19.30;34.00;;;;;;4980656;28;20624;-78
2022/04/12 12:20:15;;;;;;;1.67;0.83;;;19.30;33.70;;;;;;4983424;28;20208;-77
2022/04/12 12:22:45;;;;;;;2.80;0.90;;;19.40;33.50;;;;;;4984521;28;20233;-81
2022/04/12 12:25:19;;;;;;;3.67;0.87;;;19.40;32.60;;;;;;4939971;28;20212;-79
2022/04/12 12:27:53;;;;;;;3.20;1.00;;;19.40;33.10;;;;;;4985204;28;20231;-80
2022/04/12 12:30:25;;;;;;;2.20;1.23;;;19.40;32.30;;;;;;4974109;28;20228;-79
2022/04/12 12:32:56;;;;;;;2.03;1.00;;;19.40;32.80;;;;;;4983061;28;20571;-79
2022/04/12 12:35:26;;;;;;;2.20;1.00;;;19.50;33.00;;;;;;4981631;28;20203;-79
2022/04/12 12:38:03;;;;;;;1.87;0.90;;;19.50;32.80;;;;;;4982224;28;20197;-79
2022/04/12 12:40:32;;;;;;;2.17;0.77;;;19.60;33.20;;;;;;4982387;28;20955;-79
2022/04/12 12:43:04;;;;;;;3.90;1.17;;;19.60;32.90;;;;;;4981792;28;20395;-78
2022/04/12 12:45:39;;;;;;;1.60;0.93;;;19.70;32.80;;;;;;4981666;28;20655;-78
2022/04/12 12:48:25;;;;;;;1.57;1.00;;;19.90;33.00;;;;;;4971619;28;20364;-79
2022/04/12 12:50:56;;;;;;;1.80;0.87;;;20.00;33.00;;;;;;4985797;28;20209;-78
2022/04/12 12:53:27;;;;;;;1.90;0.93;;;20.00;32.40;;;;;;4984998;28;20208;-81
2022/04/12 12:55:55;;;;;;;2.90;0.90;;;19.90;32.40;;;;;;4988371;28;20193;-79
2022/04/12 12:58:30;;;;;;;2.37;1.00;;;19.80;31.80;;;;;;4987754;28;20196;-80
2022/04/12 13:01:03;;;;;;;1.90;0.80;;;19.70;32.40;;;;;;4986930;28;20206;-78
2022/04/12 13:03:32;;;;;;;2.10;1.00;;;19.70;32.80;;;;;;4985376;28;20668;-81
2022/04/12 13:06:01;;;;;;;1.60;1.03;;;19.60;32.50;;;;;;4988191;28;20687;-80
2022/04/12 13:08:33;;;;;;;4.33;1.20;;;19.70;32.00;;;;;;4986524;28;20224;-78